createdAt,value
2022-09-22T00:01:32.774Z,13.72
2022-09-22T00:04:03.680Z,13.69
2022-09-22T00:06:35.293Z,13.68
2022-09-22T00:09:03.506Z,13.63
2022-09-22T00:11:37.561Z,13.58
2022-09-22T00:14:13.398Z,13.54
2022-09-22T00:16:44.994Z,13.50
2022-09-22T00:19:16.253Z,13.47
2022-09-22T00:21:44.827Z,13.45
2022-09-22T00:24:13.037Z,13.45
2022-09-22T00:26:41.284Z,13.46
2022-09-22T00:29:09.867Z,13.48
2022-09-22T00:31:39.567Z,13.49
2022-09-22T00:34:07.698Z,13.48
2022-09-22T00:36:35.511Z,13.45
2022-09-22T00:39:03.767Z,13.47
2022-09-22T00:41:36.367Z,13.50
2022-09-22T00:44:26.116Z,13.53
2022-09-22T00:46:58.765Z,13.54
2022-09-22T00:50:00.817Z,13.53
2022-09-22T00:52:33.417Z,13.49
2022-09-22T00:55:04.663Z,13.44
2022-09-22T00:57:34.467Z,13.40
2022-09-22T01:00:05.877Z,13.32
2022-09-22T01:02:33.957Z,13.24
2022-09-22T01:05:02.245Z,13.16
2022-09-22T01:07:31.182Z,13.06
2022-09-22T01:09:59.875Z,12.96
2022-09-22T01:12:29.378Z,12.91
2022-09-22T01:15:24.612Z,12.86
2022-09-22T01:18:13.645Z,12.85
2022-09-22T01:21:15.129Z,12.83
2022-09-22T01:24:10.898Z,12.81
2022-09-22T01:26:47.240Z,12.78
2022-09-22T01:29:36.398Z,12.72
2022-09-22T01:32:17.150Z,12.64
2022-09-22T01:34:51.942Z,12.64
2022-09-22T01:37:54.310Z,12.62
2022-09-22T01:40:33.581Z,12.64
2022-09-22T01:43:46.159Z,12.67
2022-09-22T01:46:19.542Z,12.66
2022-09-22T01:48:49.504Z,12.72
2022-09-22T01:51:18.713Z,12.75
2022-09-22T01:53:56.168Z,12.72
2022-09-22T01:56:26.039Z,12.69
2022-09-22T01:58:58.248Z,12.65
2022-09-22T02:01:29.613Z,12.69
2022-09-22T02:04:04.298Z,12.72
2022-09-22T02:06:43.469Z,12.72
2022-09-22T02:09:13.197Z,12.72
2022-09-22T02:11:41.786Z,12.72
2022-09-22T02:14:09.893Z,12.76
2022-09-22T02:16:37.783Z,12.76
2022-09-22T02:19:13.439Z,12.73
2022-09-22T02:21:45.198Z,12.76
2022-09-22T02:24:39.972Z,12.75
2022-09-22T02:27:11.843Z,12.69
2022-09-22T02:29:46.587Z,12.73
2022-09-22T02:32:16.598Z,12.76
2022-09-22T02:34:45.880Z,12.74
2022-09-22T02:37:13.801Z,12.68
2022-09-22T02:40:03.385Z,12.70
2022-09-22T02:42:35.304Z,12.72
2022-09-22T02:45:13.629Z,12.80
2022-09-22T02:48:00.429Z,12.84
2022-09-22T02:50:30.002Z,12.85
2022-09-22T02:52:58.744Z,12.81
2022-09-22T02:55:26.720Z,12.76
2022-09-22T02:57:54.790Z,12.78
2022-09-22T03:00:22.852Z,12.79
2022-09-22T03:02:50.993Z,12.76
2022-09-22T03:05:18.961Z,12.81
2022-09-22T03:07:46.718Z,12.79
2022-09-22T03:10:14.590Z,12.76
2022-09-22T03:13:09.183Z,12.78
2022-09-22T03:15:31.776Z,12.80
2022-09-22T03:17:59.620Z,12.79
2022-09-22T03:20:27.546Z,12.82
2022-09-22T03:22:55.386Z,12.85
2022-09-22T03:25:23.281Z,12.90
2022-09-22T03:27:51.161Z,12.88
2022-09-22T03:30:19.060Z,12.86
2022-09-22T03:32:47.519Z,12.85
2022-09-22T03:35:15.844Z,12.83
2022-09-22T03:37:44.389Z,12.83
2022-09-22T03:40:12.495Z,12.79
2022-09-22T03:42:40.453Z,12.79
2022-09-22T03:45:09.442Z,12.79
2022-09-22T03:47:37.176Z,12.78
2022-09-22T03:50:05.516Z,12.73
2022-09-22T03:52:33.595Z,12.73
2022-09-22T03:55:03.288Z,12.80
2022-09-22T03:57:31.872Z,12.76
2022-09-22T03:59:59.590Z,12.83
2022-09-22T04:02:27.695Z,12.84
2022-09-22T04:04:55.731Z,12.80
2022-09-22T04:07:24.289Z,12.82
2022-09-22T04:09:52.697Z,12.84
2022-09-22T04:12:20.487Z,12.81
2022-09-22T04:14:48.298Z,12.79
2022-09-22T04:17:15.979Z,12.83
2022-09-22T04:19:44.113Z,12.81
2022-09-22T04:22:12.257Z,12.81
2022-09-22T04:24:39.967Z,12.84
2022-09-22T04:27:19.448Z,12.88
2022-09-22T04:29:49.741Z,12.87
2022-09-22T04:32:18.260Z,12.88
2022-09-22T04:37:27.417Z,12.98
2022-09-22T04:39:55.581Z,12.95
2022-09-22T04:42:23.363Z,12.93
2022-09-22T04:44:51.213Z,12.93
2022-09-22T04:47:19.410Z,12.96
2022-09-22T04:49:47.222Z,12.94
2022-09-22T04:52:15.214Z,12.92
2022-09-22T04:54:43.910Z,12.94
2022-09-22T04:57:11.820Z,12.98
2022-09-22T04:59:39.573Z,12.98
2022-09-22T05:02:07.858Z,13.05
2022-09-22T05:04:36.197Z,13.04
2022-09-22T05:07:05.190Z,13.05
2022-09-22T05:09:33.388Z,13.08
2022-09-22T05:12:01.474Z,13.08
2022-09-22T05:14:29.637Z,13.06
2022-09-22T05:16:57.399Z,13.05
2022-09-22T05:19:25.574Z,13.03
2022-09-22T05:21:54.102Z,13.01
2022-09-22T05:24:22.153Z,13.00
2022-09-22T05:26:50.504Z,13.04
2022-09-22T05:29:18.376Z,13.04
2022-09-22T05:31:46.290Z,13.08
2022-09-22T05:34:14.370Z,13.11
2022-09-22T05:36:42.531Z,13.17
2022-09-22T05:39:10.417Z,13.20
2022-09-22T05:41:38.623Z,13.18
2022-09-22T05:44:06.369Z,13.14
2022-09-22T05:46:34.462Z,13.16
2022-09-22T05:49:02.424Z,13.18
2022-09-22T05:51:30.994Z,13.27
2022-09-22T05:53:59.010Z,13.31
2022-09-22T05:56:27.029Z,13.32
2022-09-22T05:58:54.703Z,13.40
2022-09-22T06:01:22.666Z,13.40
2022-09-22T06:03:50.433Z,13.45
2022-09-22T06:06:18.957Z,13.49
2022-09-22T06:08:49.166Z,13.49
2022-09-22T06:11:17.056Z,13.53
2022-09-22T06:13:45.112Z,13.55
2022-09-22T06:16:13.300Z,13.58
2022-09-22T06:18:41.511Z,13.62
2022-09-22T06:21:09.709Z,13.67
2022-09-22T06:23:42.595Z,13.75
2022-09-22T06:26:11.168Z,13.78
2022-09-22T06:28:38.965Z,13.85
2022-09-22T06:31:07.218Z,13.81
2022-09-22T06:33:35.862Z,13.85
2022-09-22T06:36:08.051Z,13.86
2022-09-22T06:38:35.913Z,13.88
2022-09-22T06:41:06.944Z,13.87
2022-09-22T06:43:38.080Z,13.93
2022-09-22T06:46:06.326Z,14.02
2022-09-22T06:48:34.586Z,14.14
2022-09-22T06:51:02.325Z,14.25
2022-09-22T06:53:30.197Z,14.35
2022-09-22T06:56:00.416Z,14.41
2022-09-22T06:58:29.122Z,14.46
2022-09-22T07:00:59.212Z,14.49
2022-09-22T07:03:27.219Z,14.54
2022-09-22T07:05:57.454Z,14.55
2022-09-22T07:08:25.787Z,14.56
2022-09-22T07:10:55.011Z,14.59
2022-09-22T07:13:24.839Z,14.58
2022-09-22T07:15:52.759Z,14.59
2022-09-22T07:18:20.619Z,14.65
2022-09-22T07:20:48.366Z,14.71
2022-09-22T07:23:20.983Z,14.84
2022-09-22T07:25:59.451Z,14.93
2022-09-22T07:28:28.871Z,15.08
2022-09-22T07:31:01.749Z,15.11
2022-09-22T07:33:29.633Z,15.14
2022-09-22T07:36:08.829Z,15.23
2022-09-22T07:38:37.241Z,15.28
2022-09-22T07:41:09.873Z,15.29
2022-09-22T07:43:39.091Z,15.33
2022-09-22T07:46:07.976Z,15.36
2022-09-22T07:48:37.572Z,15.38
2022-09-22T07:51:14.273Z,15.35
2022-09-22T07:53:43.598Z,15.29
2022-09-22T07:56:15.159Z,15.22
2022-09-22T07:58:50.198Z,15.20
2022-09-22T08:01:19.813Z,15.18
2022-09-22T08:03:47.849Z,15.20
2022-09-22T08:06:18.389Z,15.27
2022-09-22T08:08:52.361Z,15.38
2022-09-22T08:11:37.177Z,15.61
2022-09-22T08:14:08.083Z,15.92
2022-09-22T08:16:38.252Z,16.26
2022-09-22T08:19:12.614Z,16.51
2022-09-22T08:21:49.178Z,16.72
2022-09-22T08:24:22.003Z,16.87
2022-09-22T08:26:52.373Z,16.99
2022-09-22T08:29:22.120Z,17.13
2022-09-22T08:31:51.515Z,17.41
2022-09-22T08:34:20.262Z,17.72
2022-09-22T08:36:49.194Z,18.88
2022-09-22T08:39:18.200Z,20.58
2022-09-22T08:42:09.268Z,20.88
2022-09-22T08:44:57.190Z,20.55
2022-09-22T08:48:06.673Z,20.16
2022-09-22T08:50:58.847Z,19.99
2022-09-22T08:53:32.302Z,20.23
2022-09-22T08:56:23.224Z,20.42
2022-09-22T08:59:03.047Z,20.76
2022-09-22T09:01:49.787Z,21.14
2022-09-22T09:04:42.592Z,21.28
2022-09-22T09:07:16.135Z,21.40
2022-09-22T09:09:50.316Z,22.51
2022-09-22T09:12:34.728Z,23.53
2022-09-22T09:15:30.332Z,24.62
2022-09-22T09:18:02.381Z,27.09
2022-09-22T09:20:40.158Z,28.65
2022-09-22T09:23:18.903Z,28.82
2022-09-22T09:25:50.317Z,28.23
2022-09-22T09:28:34.077Z,27.66
2022-09-22T09:31:18.374Z,27.46
2022-09-22T09:33:52.703Z,27.25
2022-09-22T09:36:23.233Z,27.64
2022-09-22T09:38:54.694Z,28.95
2022-09-22T09:41:32.819Z,30.85
2022-09-22T09:44:01.593Z,32.73
2022-09-22T09:47:03.393Z,33.06
2022-09-22T09:49:31.399Z,32.32
2022-09-22T09:52:00.838Z,31.69
2022-09-22T09:54:29.457Z,30.92
2022-09-22T09:57:10.492Z,29.39
2022-09-22T10:00:00.619Z,27.99
2022-09-22T10:02:34.777Z,27.51
2022-09-22T10:05:14.034Z,28.27
2022-09-22T10:07:47.028Z,30.72
2022-09-22T10:10:36.277Z,33.27
2022-09-22T10:13:04.397Z,35.56
2022-09-22T10:15:37.819Z,37.01
2022-09-22T10:18:24.198Z,37.96
2022-09-22T10:21:04.049Z,37.23
2022-09-22T10:23:34.849Z,35.95
2022-09-22T10:26:17.902Z,34.59
2022-09-22T10:28:50.408Z,33.14
2022-09-22T10:31:20.641Z,31.67
2022-09-22T10:33:59.916Z,30.13
2022-09-22T10:36:29.428Z,28.54
2022-09-22T10:38:59.724Z,27.09
2022-09-22T10:41:34.242Z,25.68
2022-09-22T10:44:27.757Z,24.41
2022-09-22T10:47:11.501Z,23.21
2022-09-22T10:50:10.693Z,22.44
2022-09-22T10:52:51.223Z,21.83
2022-09-22T10:55:25.882Z,21.23
2022-09-22T10:58:08.664Z,20.76
2022-09-22T11:00:39.255Z,20.55
2022-09-22T11:03:26.232Z,20.40
2022-09-22T11:06:32.006Z,20.34
2022-09-22T11:12:39.664Z,21.38
2022-09-22T11:15:11.685Z,21.61
2022-09-22T11:18:01.484Z,21.77
2022-09-22T11:20:34.608Z,22.14
2022-09-22T11:23:30.175Z,22.35
2022-09-22T11:26:16.750Z,22.07
2022-09-22T11:28:57.319Z,21.62
2022-09-22T11:31:31.422Z,21.17
2022-09-22T11:34:12.971Z,20.62
2022-09-22T11:36:53.921Z,20.00
2022-09-22T11:39:34.237Z,19.43
2022-09-22T11:42:59.433Z,18.95
2022-09-22T11:45:39.192Z,18.50
2022-09-22T11:48:19.013Z,18.21
2022-09-22T11:50:55.722Z,18.08
2022-09-22T11:53:32.884Z,18.08
2022-09-22T11:56:16.009Z,18.17
2022-09-22T11:58:44.765Z,18.42
2022-09-22T12:01:20.509Z,18.77
2022-09-22T12:04:09.075Z,18.95
2022-09-22T12:06:41.514Z,18.85
2022-09-22T12:09:19.774Z,18.62
2022-09-22T12:11:47.854Z,18.23
2022-09-22T12:14:15.909Z,17.89
2022-09-22T12:16:54.405Z,17.57
2022-09-22T12:19:41.499Z,17.35
2022-09-22T12:22:24.512Z,17.23
2022-09-22T12:24:52.198Z,17.21
2022-09-22T12:27:26.347Z,17.13
2022-09-22T12:30:03.894Z,16.95
2022-09-22T12:32:41.902Z,16.63
2022-09-22T12:35:34.039Z,16.37
2022-09-22T12:38:03.660Z,16.08
2022-09-22T12:40:37.223Z,15.83
2022-09-22T12:43:06.070Z,15.58
2022-09-22T12:45:36.540Z,15.39
2022-09-22T12:48:14.518Z,15.21
2022-09-22T12:50:44.372Z,15.05
2022-09-22T12:53:21.564Z,14.90
2022-09-22T12:55:50.534Z,14.76
2022-09-22T12:58:18.557Z,14.68
2022-09-22T13:00:47.798Z,14.62
2022-09-22T13:03:30.196Z,14.60
2022-09-22T13:05:59.961Z,14.61
2022-09-22T13:08:33.957Z,14.61
2022-09-22T13:11:03.341Z,14.62
2022-09-22T13:13:31.791Z,14.66
2022-09-22T13:16:02.058Z,14.71
2022-09-22T13:18:33.022Z,14.77
2022-09-22T13:21:13.184Z,14.82
2022-09-22T13:23:58.740Z,14.90
2022-09-22T13:26:40.925Z,15.03
2022-09-22T13:29:21.404Z,15.16
2022-09-22T13:31:57.961Z,15.26
2022-09-22T13:34:29.338Z,15.34
2022-09-22T13:37:04.311Z,15.40
2022-09-22T13:39:34.798Z,15.46
2022-09-22T13:42:06.685Z,15.55
2022-09-22T13:44:37.110Z,15.67
2022-09-22T13:47:07.861Z,15.80
2022-09-22T13:49:44.710Z,15.96
2022-09-22T13:52:21.638Z,16.04
2022-09-22T13:54:52.902Z,16.06
2022-09-22T13:57:24.218Z,16.06
2022-09-22T13:59:52.657Z,16.05
2022-09-22T14:02:28.186Z,16.04
2022-09-22T14:05:07.247Z,15.99
2022-09-22T14:07:49.483Z,15.93
2022-09-22T14:10:27.787Z,15.86
2022-09-22T14:12:56.826Z,15.80
2022-09-22T14:15:43.798Z,15.72
2022-09-22T14:18:21.958Z,15.65
2022-09-22T14:20:49.885Z,15.60
2022-09-22T14:23:33.299Z,15.56
2022-09-22T14:26:04.209Z,15.51
2022-09-22T14:28:35.467Z,15.47
2022-09-22T14:31:15.798Z,15.44
2022-09-22T14:33:45.627Z,15.40
2022-09-22T14:36:19.876Z,15.35
2022-09-22T14:39:03.784Z,15.30
2022-09-22T14:41:36.989Z,15.22
2022-09-22T14:44:26.716Z,15.18
2022-09-22T14:47:09.506Z,15.15
2022-09-22T14:49:43.264Z,15.11
2022-09-22T14:52:30.812Z,15.05
2022-09-22T14:55:06.758Z,15.00
2022-09-22T14:57:35.595Z,14.93
2022-09-22T15:00:23.017Z,14.87
2022-09-22T15:02:53.776Z,14.75
2022-09-22T15:05:30.608Z,14.64
2022-09-22T15:07:58.949Z,14.50
2022-09-22T15:10:35.888Z,14.40
2022-09-22T15:13:29.709Z,14.30
2022-09-22T15:15:57.702Z,14.20
2022-09-22T15:18:30.401Z,14.24
2022-09-22T15:21:09.565Z,14.69
2022-09-22T15:23:44.749Z,14.72
2022-09-22T15:26:25.132Z,14.47
2022-09-22T15:28:55.025Z,14.26
2022-09-22T15:31:27.244Z,14.10
2022-09-22T15:34:02.089Z,13.97
2022-09-22T15:36:32.881Z,13.99
2022-09-22T15:39:07.029Z,14.39
2022-09-22T15:41:35.578Z,14.70
2022-09-22T15:44:03.630Z,14.51
2022-09-22T15:46:34.524Z,14.30
2022-09-22T15:49:16.920Z,14.14
2022-09-22T15:51:44.902Z,14.13
2022-09-22T15:54:14.670Z,14.53
2022-09-22T15:56:44.325Z,14.67
2022-09-22T15:59:22.913Z,14.43
2022-09-22T16:01:51.991Z,14.18
2022-09-22T16:04:20.829Z,14.10
2022-09-22T16:06:54.353Z,14.48
2022-09-22T16:09:22.541Z,14.72
2022-09-22T16:11:50.624Z,14.44
2022-09-22T16:14:18.755Z,14.13
2022-09-22T16:16:46.627Z,13.97
2022-09-22T16:19:14.488Z,14.30
2022-09-22T16:21:52.821Z,14.65
2022-09-22T16:24:22.803Z,14.68
2022-09-22T16:26:54.259Z,14.27
2022-09-22T16:29:22.416Z,13.87
2022-09-22T16:31:51.239Z,13.68
2022-09-22T16:34:19.148Z,14.01
2022-09-22T16:36:47.163Z,14.36
2022-09-22T16:39:14.906Z,14.59
2022-09-22T16:41:46.329Z,14.75
2022-09-22T16:44:15.637Z,14.71
2022-09-22T16:46:43.483Z,14.25
2022-09-22T16:49:13.803Z,13.91
2022-09-22T16:51:48.866Z,14.11
2022-09-22T16:54:18.612Z,14.40
2022-09-22T16:56:49.114Z,14.59
2022-09-22T16:59:19.214Z,14.67
2022-09-22T17:01:47.734Z,14.36
2022-09-22T17:04:16.864Z,13.82
2022-09-22T17:06:45.422Z,13.47
2022-09-22T17:09:14.471Z,13.63
2022-09-22T17:11:45.289Z,13.89
2022-09-22T17:14:15.546Z,14.01
2022-09-22T17:16:49.771Z,14.08
2022-09-22T17:19:23.246Z,13.92
2022-09-22T17:21:52.871Z,13.88
2022-09-22T17:24:21.786Z,13.73
2022-09-22T17:26:52.083Z,13.47
2022-09-22T17:29:26.441Z,13.56
2022-09-22T17:31:57.344Z,13.76
2022-09-22T17:34:28.405Z,13.89
2022-09-22T17:36:57.417Z,14.02
2022-09-22T17:39:26.720Z,14.07
2022-09-22T17:41:55.198Z,13.90
2022-09-22T17:44:25.315Z,13.70
2022-09-22T17:47:11.829Z,13.74
2022-09-22T17:49:58.762Z,13.68
2022-09-22T17:52:29.597Z,13.77
2022-09-22T17:55:14.237Z,13.92
2022-09-22T17:57:43.678Z,13.90
2022-09-22T18:00:13.296Z,13.99
2022-09-22T18:02:41.588Z,14.09
2022-09-22T18:05:12.559Z,14.22
2022-09-22T18:07:41.260Z,14.31
2022-09-22T18:10:15.160Z,14.38
2022-09-22T18:12:44.210Z,14.44
2022-09-22T18:15:13.449Z,14.48
2022-09-22T18:17:42.554Z,14.48
2022-09-22T18:20:16.959Z,14.33
2022-09-22T18:22:49.152Z,13.77
2022-09-22T18:25:23.123Z,13.38
2022-09-22T18:27:51.087Z,13.56
2022-09-22T18:30:19.667Z,13.81
2022-09-22T18:32:48.921Z,13.97
2022-09-22T18:35:17.051Z,14.08
2022-09-22T18:37:46.490Z,14.09
2022-09-22T18:40:16.190Z,14.13
2022-09-22T18:42:44.862Z,14.22
2022-09-22T18:45:14.364Z,14.27
2022-09-22T18:47:43.908Z,14.02
2022-09-22T18:50:12.415Z,13.60
2022-09-22T18:52:43.294Z,13.64
2022-09-22T18:55:14.056Z,13.83
2022-09-22T18:57:42.406Z,14.01
2022-09-22T19:00:11.702Z,14.08
2022-09-22T19:02:39.808Z,14.17
2022-09-22T19:05:08.166Z,14.21
2022-09-22T19:07:43.542Z,13.99
2022-09-22T19:10:14.852Z,13.59
2022-09-22T19:12:43.015Z,13.72
2022-09-22T19:15:18.917Z,13.95
2022-09-22T19:17:49.385Z,14.13
2022-09-22T19:20:21.958Z,14.25
2022-09-22T19:22:50.660Z,14.29
2022-09-22T19:25:21.620Z,14.35
2022-09-22T19:27:52.556Z,14.37
2022-09-22T19:30:24.830Z,14.28
2022-09-22T19:32:54.546Z,14.30
2022-09-22T19:35:22.775Z,14.34
2022-09-22T19:37:51.932Z,14.39
2022-09-22T19:40:24.265Z,14.42
2022-09-22T19:42:53.178Z,14.45
2022-09-22T19:45:21.886Z,14.48
2022-09-22T19:47:49.809Z,14.44
2022-09-22T19:50:17.956Z,14.14
2022-09-22T19:52:45.695Z,13.69
2022-09-22T19:55:13.518Z,13.78
2022-09-22T19:57:41.882Z,13.97
2022-09-22T20:00:18.064Z,14.11
2022-09-22T20:02:45.938Z,14.20
2022-09-22T20:05:19.337Z,14.25
2022-09-22T20:07:48.239Z,14.29
2022-09-22T20:10:18.912Z,14.34
2022-09-22T20:12:46.689Z,14.38
2022-09-22T20:15:15.793Z,14.37
2022-09-22T20:17:46.143Z,14.33
2022-09-22T20:20:16.208Z,14.32
2022-09-22T20:22:46.690Z,14.29
2022-09-22T20:25:22.694Z,14.31
2022-09-22T20:27:50.901Z,14.30
2022-09-22T20:30:19.476Z,14.32
2022-09-22T20:32:47.590Z,14.31
2022-09-22T20:35:17.935Z,14.31
2022-09-22T20:37:45.701Z,14.31
2022-09-22T20:40:18.812Z,14.31
2022-09-22T20:42:48.662Z,14.33
2022-09-22T20:45:18.675Z,14.33
2022-09-22T20:47:46.866Z,14.27
2022-09-22T20:50:14.879Z,14.25
2022-09-22T20:52:43.226Z,14.22
2022-09-22T20:55:11.085Z,14.19
2022-09-22T20:57:40.603Z,14.14
2022-09-22T21:00:08.982Z,14.09
2022-09-22T21:02:36.825Z,13.99
2022-09-22T21:05:05.246Z,13.91
2022-09-22T21:07:33.890Z,13.82
2022-09-22T21:10:20.419Z,13.73
2022-09-22T21:12:50.662Z,13.68
2022-09-22T21:15:21.532Z,13.65
2022-09-22T21:17:49.809Z,13.65
2022-09-22T21:20:17.537Z,13.57
2022-09-22T21:22:45.726Z,13.51
2022-09-22T21:25:13.498Z,13.48
2022-09-22T21:27:41.520Z,13.45
2022-09-22T21:30:09.983Z,13.45
2022-09-22T21:32:38.736Z,13.43
2022-09-22T21:35:06.897Z,13.42
2022-09-22T21:37:34.670Z,13.40
2022-09-22T21:40:02.721Z,13.39
2022-09-22T21:42:31.381Z,13.35
2022-09-22T21:44:59.393Z,13.31
2022-09-22T21:47:27.146Z,13.25
2022-09-22T21:49:54.824Z,13.20
2022-09-22T21:52:22.895Z,13.14
2022-09-22T21:54:50.750Z,13.09
2022-09-22T21:57:18.663Z,13.05
2022-09-22T21:59:46.611Z,13.00
2022-09-22T22:02:14.478Z,12.96
2022-09-22T22:04:42.329Z,12.91
2022-09-22T22:07:11.907Z,12.86
2022-09-22T22:09:39.663Z,12.80
2022-09-22T22:12:08.951Z,12.72
2022-09-22T22:14:36.766Z,12.69
2022-09-22T22:17:05.630Z,12.65
2022-09-22T22:19:34.662Z,12.59
2022-09-22T22:22:02.457Z,12.53
2022-09-22T22:24:40.995Z,12.48
2022-09-22T22:27:10.527Z,12.43
2022-09-22T22:29:40.784Z,12.39
2022-09-22T22:32:10.445Z,12.36
2022-09-22T22:34:38.195Z,12.32
2022-09-22T22:37:09.601Z,12.24
2022-09-22T22:39:38.320Z,12.23
2022-09-22T22:42:07.027Z,12.19
2022-09-22T22:44:35.391Z,12.15
2022-09-22T22:47:03.692Z,12.10
2022-09-22T22:49:32.773Z,12.05
2022-09-22T22:52:00.632Z,11.99
2022-09-22T22:54:28.418Z,11.94
2022-09-22T22:56:56.594Z,11.89
2022-09-22T22:59:24.379Z,11.83
2022-09-22T23:01:52.384Z,11.76
2022-09-22T23:04:21.312Z,11.69
2022-09-22T23:06:49.254Z,11.63
2022-09-22T23:09:17.233Z,11.59
2022-09-22T23:11:46.222Z,11.56
2022-09-22T23:14:16.604Z,11.52
2022-09-22T23:16:46.931Z,11.50
2022-09-22T23:19:17.316Z,11.46
2022-09-22T23:21:46.439Z,11.42
2022-09-22T23:24:16.441Z,11.37
2022-09-22T23:26:45.186Z,11.33
2022-09-22T23:29:13.196Z,11.29
2022-09-22T23:31:41.156Z,11.25
2022-09-22T23:34:08.878Z,11.19
2022-09-22T23:36:37.130Z,11.16
2022-09-22T23:39:05.179Z,11.12
2022-09-22T23:41:34.492Z,11.10
2022-09-22T23:44:03.209Z,11.05
2022-09-22T23:46:31.784Z,11.01
2022-09-22T23:49:00.466Z,10.97
2022-09-22T23:51:28.629Z,10.94
2022-09-22T23:53:57.280Z,10.92
2022-09-22T23:56:26.083Z,10.87
2022-09-22T23:58:53.995Z,10.83
